sensor_id;sensor_type;location;lat;lon;timestamp;temperature;humidity
22185;DHT22;11258;52.516;13.318;2023-08-08T00:02:05;15.40;99.90
22185;DHT22;11258;52.516;13.318;2023-08-08T00:04:31;15.40;99.90
22185;DHT22;11258;52.516;13.318;2023-08-08T00:06:57;15.40;99.90
22185;DHT22;11258;52.516;13.318;2023-08-08T00:09:22;15.40;99.90
22185;DHT22;11258;52.516;13.318;2023-08-08T00:11:48;15.30;99.90
22185;DHT22;11258;52.516;13.318;2023-08-08T00:14:14;15.30;99.90
22185;DHT22;11258;52.516;13.318;2023-08-08T00:16:40;15.20;99.90
22185;DHT22;11258;52.516;13.318;2023-08-08T00:19:05;15.20;99.90
22185;DHT22;11258;52.516;13.318;2023-08-08T00:21:31;15.20;99.90
22185;DHT22;11258;52.516;13.318;2023-08-08T00:23:57;15.10;99.90
22185;DHT22;11258;52.516;13.318;2023-08-08T00:26:22;15.20;99.90
22185;DHT22;11258;52.516;13.318;2023-08-08T00:28:48;15.20;99.90
22185;DHT22;11258;52.516;13.318;2023-08-08T00:31:13;15.10;99.90
22185;DHT22;11258;52.516;13.318;2023-08-08T00:33:42;15.00;99.90
22185;DHT22;11258;52.516;13.318;2023-08-08T00:36:07;15.00;99.90
22185;DHT22;11258;52.516;13.318;2023-08-08T00:38:33;15.00;99.90
22185;DHT22;11258;52.516;13.318;2023-08-08T00:40:59;14.90;99.90
22185;DHT22;11258;52.516;13.318;2023-08-08T00:43:24;14.90;99.90
22185;DHT22;11258;52.516;13.318;2023-08-08T00:45:50;14.90;99.90
22185;DHT22;11258;52.516;13.318;2023-08-08T00:48:16;14.90;99.90
22185;DHT22;11258;52.516;13.318;2023-08-08T00:50:43;14.80;99.90
22185;DHT22;11258;52.516;13.318;2023-08-08T00:53:12;14.80;99.90
22185;DHT22;11258;52.516;13.318;2023-08-08T00:55:38;14.80;99.90
22185;DHT22;11258;52.516;13.318;2023-08-08T00:58:04;14.90;99.90
22185;DHT22;11258;52.516;13.318;2023-08-08T01:00:30;14.90;99.90
22185;DHT22;11258;52.516;13.318;2023-08-08T01:02:55;14.80;99.90
22185;DHT22;11258;52.516;13.318;2023-08-08T01:05:21;14.80;99.90
22185;DHT22;11258;52.516;13.318;2023-08-08T01:10:28;14.80;99.90
22185;DHT22;11258;52.516;13.318;2023-08-08T01:13:05;14.70;99.90
22185;DHT22;11258;52.516;13.318;2023-08-08T01:15:33;14.50;99.90
22185;DHT22;11258;52.516;13.318;2023-08-08T01:18:06;14.60;99.90
22185;DHT22;11258;52.516;13.318;2023-08-08T01:20:33;14.60;99.90
22185;DHT22;11258;52.516;13.318;2023-08-08T01:23:09;14.60;99.90
22185;DHT22;11258;52.516;13.318;2023-08-08T01:25:38;14.60;99.90
22185;DHT22;11258;52.516;13.318;2023-08-08T01:28:04;14.50;99.90
22185;DHT22;11258;52.516;13.318;2023-08-08T01:30:30;14.50;99.90
22185;DHT22;11258;52.516;13.318;2023-08-08T01:32:56;14.50;99.90
22185;DHT22;11258;52.516;13.318;2023-08-08T01:35:23;14.50;99.90
22185;DHT22;11258;52.516;13.318;2023-08-08T01:37:54;14.50;99.90
22185;DHT22;11258;52.516;13.318;2023-08-08T01:40:24;14.50;99.90
22185;DHT22;11258;52.516;13.318;2023-08-08T01:42:51;14.50;99.90
22185;DHT22;11258;52.516;13.318;2023-08-08T01:45:17;14.50;99.90
22185;DHT22;11258;52.516;13.318;2023-08-08T01:47:49;14.50;99.90
22185;DHT22;11258;52.516;13.318;2023-08-08T01:50:14;14.50;99.90
22185;DHT22;11258;52.516;13.318;2023-08-08T01:52:40;14.40;99.90
22185;DHT22;11258;52.516;13.318;2023-08-08T01:55:06;14.50;99.90
22185;DHT22;11258;52.516;13.318;2023-08-08T01:57:32;14.50;99.90
22185;DHT22;11258;52.516;13.318;2023-08-08T01:59:57;14.60;99.90
22185;DHT22;11258;52.516;13.318;2023-08-08T02:02:23;14.60;99.90
22185;DHT22;11258;52.516;13.318;2023-08-08T02:04:48;14.60;99.90
22185;DHT22;11258;52.516;13.318;2023-08-08T02:07:14;14.60;99.90
22185;DHT22;11258;52.516;13.318;2023-08-08T02:09:41;14.50;99.90
22185;DHT22;11258;52.516;13.318;2023-08-08T02:12:06;14.60;99.90
22185;DHT22;11258;52.516;13.318;2023-08-08T02:14:32;14.60;99.90
22185;DHT22;11258;52.516;13.318;2023-08-08T02:16:58;14.60;99.90
22185;DHT22;11258;52.516;13.318;2023-08-08T02:19:23;14.50;99.90
22185;DHT22;11258;52.516;13.318;2023-08-08T02:21:49;14.50;99.90
22185;DHT22;11258;52.516;13.318;2023-08-08T02:24:15;14.60;99.90
22185;DHT22;11258;52.516;13.318;2023-08-08T02:26:40;14.50;99.90
22185;DHT22;11258;52.516;13.318;2023-08-08T02:29:06;14.50;99.90
22185;DHT22;11258;52.516;13.318;2023-08-08T02:31:31;14.50;99.90
22185;DHT22;11258;52.516;13.318;2023-08-08T02:33:57;14.60;99.90
22185;DHT22;11258;52.516;13.318;2023-08-08T02:36:23;14.50;99.90
22185;DHT22;11258;52.516;13.318;2023-08-08T02:38:48;14.50;99.90
22185;DHT22;11258;52.516;13.318;2023-08-08T02:41:15;14.50;99.90
22185;DHT22;11258;52.516;13.318;2023-08-08T02:43:40;14.40;99.90
22185;DHT22;11258;52.516;13.318;2023-08-08T02:46:06;14.40;99.90
22185;DHT22;11258;52.516;13.318;2023-08-08T02:48:32;14.30;99.90
22185;DHT22;11258;52.516;13.318;2023-08-08T02:50:58;14.30;99.90
22185;DHT22;11258;52.516;13.318;2023-08-08T02:53:23;14.20;99.90
22185;DHT22;11258;52.516;13.318;2023-08-08T02:55:49;14.10;99.90
22185;DHT22;11258;52.516;13.318;2023-08-08T02:58:15;14.10;99.90
22185;DHT22;11258;52.516;13.318;2023-08-08T03:00:40;14.20;99.90
22185;DHT22;11258;52.516;13.318;2023-08-08T03:03:06;14.20;99.90
22185;DHT22;11258;52.516;13.318;2023-08-08T03:05:31;14.20;99.90
22185;DHT22;11258;52.516;13.318;2023-08-08T03:07:57;14.20;99.90
22185;DHT22;11258;52.516;13.318;2023-08-08T03:10:23;14.20;99.90
22185;DHT22;11258;52.516;13.318;2023-08-08T03:12:48;14.10;99.90
22185;DHT22;11258;52.516;13.318;2023-08-08T03:15:14;14.00;99.90
22185;DHT22;11258;52.516;13.318;2023-08-08T03:17:39;14.00;99.90
22185;DHT22;11258;52.516;13.318;2023-08-08T03:20:05;14.10;99.90
22185;DHT22;11258;52.516;13.318;2023-08-08T03:22:32;14.10;99.90
22185;DHT22;11258;52.516;13.318;2023-08-08T03:24:58;14.10;99.90
22185;DHT22;11258;52.516;13.318;2023-08-08T03:27:24;14.10;99.90
22185;DHT22;11258;52.516;13.318;2023-08-08T03:29:50;14.10;99.90
22185;DHT22;11258;52.516;13.318;2023-08-08T03:32:16;14.10;99.90
22185;DHT22;11258;52.516;13.318;2023-08-08T03:34:41;14.10;99.90
22185;DHT22;11258;52.516;13.318;2023-08-08T03:37:07;14.10;99.90
22185;DHT22;11258;52.516;13.318;2023-08-08T03:39:33;14.10;99.90
22185;DHT22;11258;52.516;13.318;2023-08-08T03:41:58;14.00;99.90
22185;DHT22;11258;52.516;13.318;2023-08-08T03:44:24;14.00;99.90
22185;DHT22;11258;52.516;13.318;2023-08-08T03:46:49;14.00;99.90
22185;DHT22;11258;52.516;13.318;2023-08-08T03:49:16;14.10;99.90
22185;DHT22;11258;52.516;13.318;2023-08-08T03:51:41;14.10;99.90
22185;DHT22;11258;52.516;13.318;2023-08-08T03:54:07;14.20;99.90
22185;DHT22;11258;52.516;13.318;2023-08-08T03:56:33;14.20;99.90
22185;DHT22;11258;52.516;13.318;2023-08-08T03:58:59;14.30;99.90
22185;DHT22;11258;52.516;13.318;2023-08-08T04:01:24;14.30;99.90
22185;DHT22;11258;52.516;13.318;2023-08-08T04:03:50;14.30;99.90
22185;DHT22;11258;52.516;13.318;2023-08-08T04:06:16;14.40;99.90
22185;DHT22;11258;52.516;13.318;2023-08-08T04:08:41;14.50;99.90
22185;DHT22;11258;52.516;13.318;2023-08-08T04:11:07;14.50;99.90
22185;DHT22;11258;52.516;13.318;2023-08-08T04:13:32;14.50;99.90
22185;DHT22;11258;52.516;13.318;2023-08-08T04:15:58;14.60;99.90
22185;DHT22;11258;52.516;13.318;2023-08-08T04:18:23;14.60;99.90
22185;DHT22;11258;52.516;13.318;2023-08-08T04:20:49;14.70;99.90
22185;DHT22;11258;52.516;13.318;2023-08-08T04:23:15;14.70;99.90
22185;DHT22;11258;52.516;13.318;2023-08-08T04:25:40;14.70;99.90
22185;DHT22;11258;52.516;13.318;2023-08-08T04:28:06;14.90;99.90
22185;DHT22;11258;52.516;13.318;2023-08-08T04:30:31;15.00;99.90
22185;DHT22;11258;52.516;13.318;2023-08-08T04:32:57;15.20;99.90
22185;DHT22;11258;52.516;13.318;2023-08-08T04:35:23;15.30;99.90
22185;DHT22;11258;52.516;13.318;2023-08-08T04:37:48;15.40;99.90
22185;DHT22;11258;52.516;13.318;2023-08-08T04:40:14;15.60;99.90
22185;DHT22;11258;52.516;13.318;2023-08-08T04:42:40;16.00;99.90
22185;DHT22;11258;52.516;13.318;2023-08-08T04:45:06;17.60;99.90
22185;DHT22;11258;52.516;13.318;2023-08-08T04:47:32;19.10;99.90
22185;DHT22;11258;52.516;13.318;2023-08-08T04:49:58;21.00;99.90
22185;DHT22;11258;52.516;13.318;2023-08-08T04:52:24;22.10;99.90
22185;DHT22;11258;52.516;13.318;2023-08-08T04:54:49;22.20;99.90
22185;DHT22;11258;52.516;13.318;2023-08-08T04:57:15;23.30;99.90
22185;DHT22;11258;52.516;13.318;2023-08-08T04:59:40;23.50;99.90
22185;DHT22;11258;52.516;13.318;2023-08-08T05:02:08;24.30;99.90
22185;DHT22;11258;52.516;13.318;2023-08-08T05:04:33;24.90;99.90
22185;DHT22;11258;52.516;13.318;2023-08-08T05:06:59;24.00;99.90
22185;DHT22;11258;52.516;13.318;2023-08-08T05:09:24;23.00;99.90
22185;DHT22;11258;52.516;13.318;2023-08-08T05:11:53;21.30;99.90
22185;DHT22;11258;52.516;13.318;2023-08-08T05:14:19;20.10;99.90
22185;DHT22;11258;52.516;13.318;2023-08-08T05:16:45;19.10;99.90
22185;DHT22;11258;52.516;13.318;2023-08-08T05:19:11;19.20;99.90
22185;DHT22;11258;52.516;13.318;2023-08-08T05:21:37;19.10;99.90
22185;DHT22;11258;52.516;13.318;2023-08-08T05:24:03;18.90;99.90
22185;DHT22;11258;52.516;13.318;2023-08-08T05:26:29;18.90;99.90
22185;DHT22;11258;52.516;13.318;2023-08-08T05:28:54;20.10;99.90
22185;DHT22;11258;52.516;13.318;2023-08-08T05:31:20;21.00;99.90
22185;DHT22;11258;52.516;13.318;2023-08-08T05:33:47;21.90;99.90
22185;DHT22;11258;52.516;13.318;2023-08-08T05:36:13;22.70;99.90
22185;DHT22;11258;52.516;13.318;2023-08-08T05:38:38;22.90;99.90
22185;DHT22;11258;52.516;13.318;2023-08-08T05:41:04;24.60;99.90
22185;DHT22;11258;52.516;13.318;2023-08-08T05:43:30;25.20;99.90
22185;DHT22;11258;52.516;13.318;2023-08-08T05:45:55;25.90;99.90
22185;DHT22;11258;52.516;13.318;2023-08-08T05:48:21;25.40;99.90
22185;DHT22;11258;52.516;13.318;2023-08-08T05:50:46;24.30;99.90
22185;DHT22;11258;52.516;13.318;2023-08-08T05:53:12;22.90;99.90
22185;DHT22;11258;52.516;13.318;2023-08-08T05:55:41;21.60;99.90
22185;DHT22;11258;52.516;13.318;2023-08-08T05:58:07;20.90;99.90
22185;DHT22;11258;52.516;13.318;2023-08-08T06:00:32;20.00;99.90
22185;DHT22;11258;52.516;13.318;2023-08-08T06:02:58;19.60;99.90
22185;DHT22;11258;52.516;13.318;2023-08-08T06:05:24;19.90;99.90
22185;DHT22;11258;52.516;13.318;2023-08-08T06:07:50;21.20;99.90
22185;DHT22;11258;52.516;13.318;2023-08-08T06:10:15;22.90;99.90
22185;DHT22;11258;52.516;13.318;2023-08-08T06:12:41;22.80;99.90
22185;DHT22;11258;52.516;13.318;2023-08-08T06:15:07;22.40;99.90
22185;DHT22;11258;52.516;13.318;2023-08-08T06:17:34;23.20;99.90
22185;DHT22;11258;52.516;13.318;2023-08-08T06:19:59;22.30;99.90
22185;DHT22;11258;52.516;13.318;2023-08-08T06:22:25;21.50;99.90
22185;DHT22;11258;52.516;13.318;2023-08-08T06:24:51;21.00;99.90
22185;DHT22;11258;52.516;13.318;2023-08-08T06:27:17;22.50;99.90
22185;DHT22;11258;52.516;13.318;2023-08-08T06:29:43;22.80;99.90
22185;DHT22;11258;52.516;13.318;2023-08-08T06:32:08;22.10;99.90
22185;DHT22;11258;52.516;13.318;2023-08-08T06:34:34;21.60;99.90
22185;DHT22;11258;52.516;13.318;2023-08-08T06:37:00;21.00;99.90
22185;DHT22;11258;52.516;13.318;2023-08-08T06:39:25;20.40;99.90
22185;DHT22;11258;52.516;13.318;2023-08-08T06:41:51;19.90;99.90
22185;DHT22;11258;52.516;13.318;2023-08-08T06:44:17;19.20;99.90
22185;DHT22;11258;52.516;13.318;2023-08-08T06:46:42;18.70;99.90
22185;DHT22;11258;52.516;13.318;2023-08-08T06:49:08;18.40;99.90
22185;DHT22;11258;52.516;13.318;2023-08-08T06:51:34;18.10;99.90
22185;DHT22;11258;52.516;13.318;2023-08-08T06:54:00;18.30;99.90
22185;DHT22;11258;52.516;13.318;2023-08-08T06:56:26;18.60;99.90
22185;DHT22;11258;52.516;13.318;2023-08-08T06:58:53;19.20;99.90
22185;DHT22;11258;52.516;13.318;2023-08-08T07:01:18;19.50;99.90
22185;DHT22;11258;52.516;13.318;2023-08-08T07:03:44;19.70;99.90
22185;DHT22;11258;52.516;13.318;2023-08-08T07:06:10;20.10;99.90
22185;DHT22;11258;52.516;13.318;2023-08-08T07:08:36;20.90;99.90
22185;DHT22;11258;52.516;13.318;2023-08-08T07:11:05;21.70;99.90
22185;DHT22;11258;52.516;13.318;2023-08-08T07:13:31;21.10;99.90
22185;DHT22;11258;52.516;13.318;2023-08-08T07:15:57;21.30;99.90
22185;DHT22;11258;52.516;13.318;2023-08-08T07:18:23;21.30;99.90
22185;DHT22;11258;52.516;13.318;2023-08-08T07:20:48;21.30;99.90
22185;DHT22;11258;52.516;13.318;2023-08-08T07:23:15;21.10;99.90
22185;DHT22;11258;52.516;13.318;2023-08-08T07:25:42;20.80;99.90
22185;DHT22;11258;52.516;13.318;2023-08-08T07:28:07;20.40;99.90
22185;DHT22;11258;52.516;13.318;2023-08-08T07:30:34;20.00;99.90
22185;DHT22;11258;52.516;13.318;2023-08-08T07:33:00;19.90;99.90
22185;DHT22;11258;52.516;13.318;2023-08-08T07:35:25;20.70;99.90
22185;DHT22;11258;52.516;13.318;2023-08-08T07:37:51;21.30;99.90
22185;DHT22;11258;52.516;13.318;2023-08-08T07:40:17;22.10;99.90
22185;DHT22;11258;52.516;13.318;2023-08-08T07:42:44;22.10;99.90
22185;DHT22;11258;52.516;13.318;2023-08-08T07:45:10;22.70;99.90
22185;DHT22;11258;52.516;13.318;2023-08-08T07:47:35;23.00;99.90
22185;DHT22;11258;52.516;13.318;2023-08-08T07:50:01;23.00;99.90
22185;DHT22;11258;52.516;13.318;2023-08-08T07:52:27;23.00;99.90
22185;DHT22;11258;52.516;13.318;2023-08-08T07:54:53;23.00;99.90
22185;DHT22;11258;52.516;13.318;2023-08-08T07:57:19;22.80;99.90
22185;DHT22;11258;52.516;13.318;2023-08-08T07:59:44;22.30;99.90
22185;DHT22;11258;52.516;13.318;2023-08-08T08:02:10;22.70;99.90
22185;DHT22;11258;52.516;13.318;2023-08-08T08:04:35;23.90;99.90
22185;DHT22;11258;52.516;13.318;2023-08-08T08:07:01;24.50;99.90
22185;DHT22;11258;52.516;13.318;2023-08-08T08:09:28;25.60;99.90
22185;DHT22;11258;52.516;13.318;2023-08-08T08:11:54;25.50;99.90
22185;DHT22;11258;52.516;13.318;2023-08-08T08:14:21;25.40;99.90
22185;DHT22;11258;52.516;13.318;2023-08-08T08:16:46;25.30;99.90
22185;DHT22;11258;52.516;13.318;2023-08-08T08:19:12;25.20;99.90
22185;DHT22;11258;52.516;13.318;2023-08-08T08:21:38;25.10;99.90
22185;DHT22;11258;52.516;13.318;2023-08-08T08:24:03;25.00;99.90
22185;DHT22;11258;52.516;13.318;2023-08-08T08:26:29;24.30;99.90
22185;DHT22;11258;52.516;13.318;2023-08-08T08:28:55;24.80;99.90
22185;DHT22;11258;52.516;13.318;2023-08-08T08:31:20;24.50;99.90
22185;DHT22;11258;52.516;13.318;2023-08-08T08:33:46;24.10;99.90
22185;DHT22;11258;52.516;13.318;2023-08-08T08:36:12;24.00;99.90
22185;DHT22;11258;52.516;13.318;2023-08-08T08:38:38;23.80;99.90
22185;DHT22;11258;52.516;13.318;2023-08-08T08:41:04;23.30;99.90
22185;DHT22;11258;52.516;13.318;2023-08-08T08:43:33;22.60;99.90
22185;DHT22;11258;52.516;13.318;2023-08-08T08:46:00;22.30;99.90
22185;DHT22;11258;52.516;13.318;2023-08-08T08:48:28;22.20;99.90
22185;DHT22;11258;52.516;13.318;2023-08-08T08:50:53;22.70;99.90
22185;DHT22;11258;52.516;13.318;2023-08-08T08:53:20;23.30;99.90
22185;DHT22;11258;52.516;13.318;2023-08-08T08:55:47;23.50;99.90
22185;DHT22;11258;52.516;13.318;2023-08-08T08:58:15;23.40;99.90
22185;DHT22;11258;52.516;13.318;2023-08-08T09:00:43;23.30;99.90
22185;DHT22;11258;52.516;13.318;2023-08-08T09:03:10;23.50;99.90
22185;DHT22;11258;52.516;13.318;2023-08-08T09:05:36;23.30;99.90
22185;DHT22;11258;52.516;13.318;2023-08-08T09:08:03;23.60;99.90
22185;DHT22;11258;52.516;13.318;2023-08-08T09:10:30;23.50;99.90
22185;DHT22;11258;52.516;13.318;2023-08-08T09:12:57;23.00;99.90
22185;DHT22;11258;52.516;13.318;2023-08-08T09:15:23;23.30;99.90
22185;DHT22;11258;52.516;13.318;2023-08-08T09:17:48;23.30;99.90
22185;DHT22;11258;52.516;13.318;2023-08-08T09:20:14;23.20;99.90
22185;DHT22;11258;52.516;13.318;2023-08-08T09:22:40;22.70;99.90
22185;DHT22;11258;52.516;13.318;2023-08-08T09:25:07;22.30;99.90
22185;DHT22;11258;52.516;13.318;2023-08-08T09:27:34;22.50;99.90
22185;DHT22;11258;52.516;13.318;2023-08-08T09:30:00;23.00;99.90
22185;DHT22;11258;52.516;13.318;2023-08-08T09:32:30;23.70;99.90
22185;DHT22;11258;52.516;13.318;2023-08-08T09:34:56;24.00;99.90
22185;DHT22;11258;52.516;13.318;2023-08-08T09:37:22;24.10;99.90
22185;DHT22;11258;52.516;13.318;2023-08-08T09:39:56;23.60;99.90
22185;DHT22;11258;52.516;13.318;2023-08-08T09:42:23;23.80;99.90
22185;DHT22;11258;52.516;13.318;2023-08-08T09:44:48;24.30;99.90
22185;DHT22;11258;52.516;13.318;2023-08-08T09:47:15;24.60;99.90
22185;DHT22;11258;52.516;13.318;2023-08-08T09:49:40;24.70;99.90
22185;DHT22;11258;52.516;13.318;2023-08-08T09:52:07;24.10;99.90
22185;DHT22;11258;52.516;13.318;2023-08-08T09:54:33;23.30;99.90
22185;DHT22;11258;52.516;13.318;2023-08-08T09:56:59;22.60;99.90
22185;DHT22;11258;52.516;13.318;2023-08-08T09:59:25;22.10;99.90
22185;DHT22;11258;52.516;13.318;2023-08-08T10:01:52;21.10;99.90
22185;DHT22;11258;52.516;13.318;2023-08-08T10:04:18;20.50;99.90
22185;DHT22;11258;52.516;13.318;2023-08-08T10:06:44;20.00;99.90
22185;DHT22;11258;52.516;13.318;2023-08-08T10:09:10;19.90;99.90
22185;DHT22;11258;52.516;13.318;2023-08-08T10:11:36;20.00;99.90
22185;DHT22;11258;52.516;13.318;2023-08-08T10:14:03;20.30;99.90
22185;DHT22;11258;52.516;13.318;2023-08-08T10:16:32;20.20;99.90
22185;DHT22;11258;52.516;13.318;2023-08-08T10:19:02;20.20;99.90
22185;DHT22;11258;52.516;13.318;2023-08-08T10:21:28;20.20;99.90
22185;DHT22;11258;52.516;13.318;2023-08-08T10:24:08;20.30;99.90
22185;DHT22;11258;52.516;13.318;2023-08-08T10:26:50;20.90;99.90
22185;DHT22;11258;52.516;13.318;2023-08-08T10:29:18;21.60;99.90
22185;DHT22;11258;52.516;13.318;2023-08-08T10:31:58;22.00;99.90
22185;DHT22;11258;52.516;13.318;2023-08-08T10:34:44;22.40;99.90
22185;DHT22;11258;52.516;13.318;2023-08-08T10:37:14;22.70;99.90
22185;DHT22;11258;52.516;13.318;2023-08-08T10:39:53;23.00;99.90
22185;DHT22;11258;52.516;13.318;2023-08-08T10:42:21;22.60;99.90
22185;DHT22;11258;52.516;13.318;2023-08-08T10:44:55;21.80;99.90
22185;DHT22;11258;52.516;13.318;2023-08-08T10:47:34;20.70;99.90
22185;DHT22;11258;52.516;13.318;2023-08-08T10:55:24;20.00;99.90
22185;DHT22;11258;52.516;13.318;2023-08-08T11:00:24;20.50;99.90
22185;DHT22;11258;52.516;13.318;2023-08-08T11:02:51;20.70;99.90
22185;DHT22;11258;52.516;13.318;2023-08-08T11:05:17;21.00;99.90
22185;DHT22;11258;52.516;13.318;2023-08-08T11:07:43;21.20;99.90
22185;DHT22;11258;52.516;13.318;2023-08-08T11:10:09;21.40;99.90
22185;DHT22;11258;52.516;13.318;2023-08-08T11:12:35;21.70;99.90
22185;DHT22;11258;52.516;13.318;2023-08-08T11:15:01;21.80;99.90
22185;DHT22;11258;52.516;13.318;2023-08-08T11:17:27;21.90;99.90
22185;DHT22;11258;52.516;13.318;2023-08-08T11:19:52;21.70;99.90
22185;DHT22;11258;52.516;13.318;2023-08-08T11:22:21;21.30;99.90
22185;DHT22;11258;52.516;13.318;2023-08-08T11:24:46;20.80;99.90
22185;DHT22;11258;52.516;13.318;2023-08-08T11:27:12;20.50;99.90
22185;DHT22;11258;52.516;13.318;2023-08-08T11:29:38;20.60;99.90
22185;DHT22;11258;52.516;13.318;2023-08-08T11:32:04;20.60;99.90
22185;DHT22;11258;52.516;13.318;2023-08-08T11:34:34;20.50;99.90
22185;DHT22;11258;52.516;13.318;2023-08-08T11:37:00;20.20;99.90
22185;DHT22;11258;52.516;13.318;2023-08-08T11:39:26;20.20;99.90
22185;DHT22;11258;52.516;13.318;2023-08-08T11:41:53;20.10;99.90
22185;DHT22;11258;52.516;13.318;2023-08-08T11:44:19;20.20;99.90
22185;DHT22;11258;52.516;13.318;2023-08-08T11:46:45;20.10;99.90
22185;DHT22;11258;52.516;13.318;2023-08-08T11:49:17;20.50;99.90
22185;DHT22;11258;52.516;13.318;2023-08-08T11:51:44;20.60;99.90
22185;DHT22;11258;52.516;13.318;2023-08-08T11:54:11;20.90;99.90
22185;DHT22;11258;52.516;13.318;2023-08-08T11:56:37;21.20;99.90
22185;DHT22;11258;52.516;13.318;2023-08-08T11:59:04;21.10;99.90
22185;DHT22;11258;52.516;13.318;2023-08-08T12:01:31;21.30;99.90
22185;DHT22;11258;52.516;13.318;2023-08-08T12:03:57;21.40;99.90
22185;DHT22;11258;52.516;13.318;2023-08-08T12:06:28;21.40;99.90
22185;DHT22;11258;52.516;13.318;2023-08-08T12:08:54;21.10;99.90
22185;DHT22;11258;52.516;13.318;2023-08-08T12:11:20;21.10;99.90
22185;DHT22;11258;52.516;13.318;2023-08-08T12:13:46;21.20;99.90
22185;DHT22;11258;52.516;13.318;2023-08-08T12:16:13;21.30;99.90
22185;DHT22;11258;52.516;13.318;2023-08-08T12:18:40;21.30;99.90
22185;DHT22;11258;52.516;13.318;2023-08-08T12:21:09;21.30;99.90
22185;DHT22;11258;52.516;13.318;2023-08-08T12:23:35;21.40;99.90
22185;DHT22;11258;52.516;13.318;2023-08-08T12:26:04;21.40;99.90
22185;DHT22;11258;52.516;13.318;2023-08-08T12:28:32;21.10;99.90
22185;DHT22;11258;52.516;13.318;2023-08-08T12:30:58;21.20;99.90
22185;DHT22;11258;52.516;13.318;2023-08-08T12:33:24;21.50;99.90
22185;DHT22;11258;52.516;13.318;2023-08-08T12:35:50;21.50;99.90
22185;DHT22;11258;52.516;13.318;2023-08-08T12:38:15;21.50;99.90
22185;DHT22;11258;52.516;13.318;2023-08-08T12:40:41;21.40;99.90
22185;DHT22;11258;52.516;13.318;2023-08-08T12:43:08;20.50;99.90
22185;DHT22;11258;52.516;13.318;2023-08-08T12:45:34;20.50;99.90
22185;DHT22;11258;52.516;13.318;2023-08-08T12:48:00;20.70;99.90
22185;DHT22;11258;52.516;13.318;2023-08-08T12:50:25;21.00;99.90
22185;DHT22;11258;52.516;13.318;2023-08-08T12:52:51;21.30;99.90
22185;DHT22;11258;52.516;13.318;2023-08-08T12:55:17;21.40;99.90
22185;DHT22;11258;52.516;13.318;2023-08-08T12:57:43;21.40;99.90
22185;DHT22;11258;52.516;13.318;2023-08-08T13:00:10;21.20;99.90
22185;DHT22;11258;52.516;13.318;2023-08-08T13:02:37;21.20;99.90
22185;DHT22;11258;52.516;13.318;2023-08-08T13:05:04;21.40;99.90
22185;DHT22;11258;52.516;13.318;2023-08-08T13:07:30;21.40;99.90
22185;DHT22;11258;52.516;13.318;2023-08-08T13:09:55;21.50;99.90
22185;DHT22;11258;52.516;13.318;2023-08-08T13:12:21;21.60;99.90
22185;DHT22;11258;52.516;13.318;2023-08-08T13:14:47;21.60;99.90
22185;DHT22;11258;52.516;13.318;2023-08-08T13:17:13;21.60;99.90
22185;DHT22;11258;52.516;13.318;2023-08-08T13:19:39;21.50;99.90
22185;DHT22;11258;52.516;13.318;2023-08-08T13:22:05;21.60;99.90
22185;DHT22;11258;52.516;13.318;2023-08-08T13:24:30;21.50;99.90
22185;DHT22;11258;52.516;13.318;2023-08-08T13:26:56;21.50;99.90
22185;DHT22;11258;52.516;13.318;2023-08-08T13:29:22;21.30;99.90
22185;DHT22;11258;52.516;13.318;2023-08-08T13:31:47;21.10;99.90
22185;DHT22;11258;52.516;13.318;2023-08-08T13:34:13;21.00;99.90
22185;DHT22;11258;52.516;13.318;2023-08-08T13:36:39;20.90;99.90
22185;DHT22;11258;52.516;13.318;2023-08-08T13:39:05;20.70;99.90
22185;DHT22;11258;52.516;13.318;2023-08-08T13:41:31;20.10;99.90
22185;DHT22;11258;52.516;13.318;2023-08-08T13:43:56;19.30;99.90
22185;DHT22;11258;52.516;13.318;2023-08-08T13:46:22;18.70;99.90
22185;DHT22;11258;52.516;13.318;2023-08-08T13:48:48;18.30;99.90
22185;DHT22;11258;52.516;13.318;2023-08-08T13:51:13;18.10;99.90
22185;DHT22;11258;52.516;13.318;2023-08-08T13:53:42;18.20;99.90
22185;DHT22;11258;52.516;13.318;2023-08-08T13:56:07;18.30;99.90
22185;DHT22;11258;52.516;13.318;2023-08-08T13:58:33;18.50;99.90
22185;DHT22;11258;52.516;13.318;2023-08-08T14:00:59;18.60;99.90
22185;DHT22;11258;52.516;13.318;2023-08-08T14:03:25;19.00;99.90
22185;DHT22;11258;52.516;13.318;2023-08-08T14:05:51;19.40;99.90
22185;DHT22;11258;52.516;13.318;2023-08-08T14:08:19;19.60;99.90
22185;DHT22;11258;52.516;13.318;2023-08-08T14:10:54;19.70;99.90
22185;DHT22;11258;52.516;13.318;2023-08-08T14:13:20;19.50;99.90
22185;DHT22;11258;52.516;13.318;2023-08-08T14:15:48;19.50;99.90
22185;DHT22;11258;52.516;13.318;2023-08-08T14:18:14;19.20;99.90
22185;DHT22;11258;52.516;13.318;2023-08-08T14:20:40;19.10;99.90
22185;DHT22;11258;52.516;13.318;2023-08-08T14:23:05;19.20;99.90
22185;DHT22;11258;52.516;13.318;2023-08-08T14:25:32;19.20;99.90
22185;DHT22;11258;52.516;13.318;2023-08-08T14:27:57;19.20;99.90
22185;DHT22;11258;52.516;13.318;2023-08-08T14:30:24;19.10;99.90
22185;DHT22;11258;52.516;13.318;2023-08-08T14:32:53;19.10;99.90
22185;DHT22;11258;52.516;13.318;2023-08-08T14:35:18;19.10;99.90
22185;DHT22;11258;52.516;13.318;2023-08-08T14:37:44;19.00;99.90
22185;DHT22;11258;52.516;13.318;2023-08-08T14:40:10;19.10;99.90
22185;DHT22;11258;52.516;13.318;2023-08-08T14:42:36;19.20;99.90
22185;DHT22;11258;52.516;13.318;2023-08-08T14:45:01;19.30;99.90
22185;DHT22;11258;52.516;13.318;2023-08-08T14:47:27;19.40;99.90
22185;DHT22;11258;52.516;13.318;2023-08-08T14:49:53;19.40;99.90
22185;DHT22;11258;52.516;13.318;2023-08-08T14:52:19;19.50;99.90
22185;DHT22;11258;52.516;13.318;2023-08-08T14:54:44;19.50;99.90
22185;DHT22;11258;52.516;13.318;2023-08-08T14:57:10;19.70;99.90
22185;DHT22;11258;52.516;13.318;2023-08-08T14:59:36;19.60;99.90
22185;DHT22;11258;52.516;13.318;2023-08-08T15:02:01;19.60;99.90
22185;DHT22;11258;52.516;13.318;2023-08-08T15:04:28;19.60;99.90
22185;DHT22;11258;52.516;13.318;2023-08-08T15:06:54;19.70;99.90
22185;DHT22;11258;52.516;13.318;2023-08-08T15:09:20;19.80;99.90
22185;DHT22;11258;52.516;13.318;2023-08-08T15:11:45;19.90;99.90
22185;DHT22;11258;52.516;13.318;2023-08-08T15:14:11;19.80;99.90
22185;DHT22;11258;52.516;13.318;2023-08-08T15:16:36;20.00;99.90
22185;DHT22;11258;52.516;13.318;2023-08-08T15:19:02;20.00;99.90
22185;DHT22;11258;52.516;13.318;2023-08-08T15:21:28;20.00;99.90